Glendale, Rhode Island
Current Conditions -  °F | °C
As of 8:15 PM on Friday 28 Nov 2014 (Local Time) from KSFZ Reporting Station
Clear Clear  
Wind Chill: 19°   Ceiling: Unl
Heat Index: 27°   Visibility: 10mi
Dew Point: 10°   Wind: 7mph
Humidity: 51%   Direction: 280°W
Pressure: 30.16"   Gusts: NA
Location:  41.98°N, 71.63°W
Report Text: KSFZ 290115Z 28006KT 240V300 10SM CLR M03/M12 A3016 RMK AO1
Loading
Personal Weather Stations






























Interactive Weather Map New forecast layout! Learn more

10-Day Weather Forecast

Advertisements
Track Severe Weather on mobile